sensor_id;sensor_type;location;lat;lon;timestamp;P1;durP1;ratioP1;P2;durP2;ratioP2
20334;SDS011;10325;51.468;5.804;2023-02-28T00:01:29;5.27;;;2.40;;
20334;SDS011;10325;51.468;5.804;2023-02-28T00:04:00;5.03;;;2.33;;
20334;SDS011;10325;51.468;5.804;2023-02-28T00:06:33;4.77;;;2.47;;
20334;SDS011;10325;51.468;5.804;2023-02-28T00:09:05;4.83;;;2.27;;
20334;SDS011;10325;51.468;5.804;2023-02-28T00:11:36;3.57;;;1.73;;
20334;SDS011;10325;51.468;5.804;2023-02-28T00:14:06;5.23;;;2.87;;
20334;SDS011;10325;51.468;5.804;2023-02-28T00:16:39;4.13;;;2.23;;
20334;SDS011;10325;51.468;5.804;2023-02-28T00:19:09;4.47;;;2.40;;
20334;SDS011;10325;51.468;5.804;2023-02-28T00:21:40;3.67;;;2.37;;
20334;SDS011;10325;51.468;5.804;2023-02-28T00:24:12;4.63;;;2.93;;
20334;SDS011;10325;51.468;5.804;2023-02-28T00:26:44;4.83;;;2.33;;
20334;SDS011;10325;51.468;5.804;2023-02-28T00:29:16;6.10;;;2.80;;
20334;SDS011;10325;51.468;5.804;2023-02-28T00:31:47;2.73;;;1.90;;
20334;SDS011;10325;51.468;5.804;2023-02-28T00:34:18;3.83;;;2.27;;
20334;SDS011;10325;51.468;5.804;2023-02-28T00:36:46;3.40;;;2.10;;
20334;SDS011;10325;51.468;5.804;2023-02-28T00:39:17;3.47;;;2.30;;
20334;SDS011;10325;51.468;5.804;2023-02-28T00:41:49;3.77;;;2.27;;
20334;SDS011;10325;51.468;5.804;2023-02-28T00:44:20;3.00;;;2.70;;
20334;SDS011;10325;51.468;5.804;2023-02-28T00:46:50;3.90;;;2.23;;
20334;SDS011;10325;51.468;5.804;2023-02-28T00:49:25;3.90;;;2.10;;
20334;SDS011;10325;51.468;5.804;2023-02-28T00:51:54;3.07;;;2.13;;
20334;SDS011;10325;51.468;5.804;2023-02-28T00:54:27;5.70;;;2.67;;
20334;SDS011;10325;51.468;5.804;2023-02-28T00:56:57;3.70;;;1.90;;
20334;SDS011;10325;51.468;5.804;2023-02-28T00:59:27;3.33;;;2.10;;
20334;SDS011;10325;51.468;5.804;2023-02-28T01:02:01;3.07;;;2.00;;
20334;SDS011;10325;51.468;5.804;2023-02-28T01:04:33;3.23;;;2.07;;
20334;SDS011;10325;51.468;5.804;2023-02-28T01:07:04;5.53;;;2.30;;
20334;SDS011;10325;51.468;5.804;2023-02-28T01:09:36;3.77;;;2.50;;
20334;SDS011;10325;51.468;5.804;2023-02-28T01:12:04;1.97;;;1.80;;
20334;SDS011;10325;51.468;5.804;2023-02-28T01:14:32;2.47;;;1.70;;
20334;SDS011;10325;51.468;5.804;2023-02-28T01:17:02;3.13;;;1.77;;
20334;SDS011;10325;51.468;5.804;2023-02-28T01:19:33;3.83;;;2.30;;
20334;SDS011;10325;51.468;5.804;2023-02-28T01:22:05;3.77;;;2.00;;
20334;SDS011;10325;51.468;5.804;2023-02-28T01:24:40;3.23;;;1.57;;
20334;SDS011;10325;51.468;5.804;2023-02-28T01:27:15;2.93;;;2.13;;
20334;SDS011;10325;51.468;5.804;2023-02-28T01:29:45;3.17;;;1.70;;
20334;SDS011;10325;51.468;5.804;2023-02-28T01:32:22;2.87;;;1.60;;
20334;SDS011;10325;51.468;5.804;2023-02-28T01:34:49;2.13;;;1.70;;
20334;SDS011;10325;51.468;5.804;2023-02-28T01:37:18;3.17;;;1.97;;
20334;SDS011;10325;51.468;5.804;2023-02-28T01:39:51;3.10;;;1.67;;
20334;SDS011;10325;51.468;5.804;2023-02-28T01:42:18;2.60;;;1.90;;
20334;SDS011;10325;51.468;5.804;2023-02-28T01:44:54;2.33;;;2.13;;
20334;SDS011;10325;51.468;5.804;2023-02-28T01:47:45;2.87;;;1.90;;
20334;SDS011;10325;51.468;5.804;2023-02-28T01:50:35;2.80;;;1.67;;
20334;SDS011;10325;51.468;5.804;2023-02-28T01:53:19;2.13;;;1.63;;
20334;SDS011;10325;51.468;5.804;2023-02-28T01:55:56;1.97;;;1.77;;
20334;SDS011;10325;51.468;5.804;2023-02-28T01:58:27;2.13;;;1.83;;
20334;SDS011;10325;51.468;5.804;2023-02-28T02:00:59;2.50;;;1.80;;
20334;SDS011;10325;51.468;5.804;2023-02-28T02:03:33;2.73;;;1.70;;
20334;SDS011;10325;51.468;5.804;2023-02-28T02:06:09;2.73;;;1.73;;
20334;SDS011;10325;51.468;5.804;2023-02-28T02:08:52;3.83;;;2.00;;
20334;SDS011;10325;51.468;5.804;2023-02-28T02:11:23;2.23;;;1.73;;
20334;SDS011;10325;51.468;5.804;2023-02-28T02:14:03;1.60;;;1.40;;
20334;SDS011;10325;51.468;5.804;2023-02-28T02:28:35;1.80;;;1.70;;
20334;SDS011;10325;51.468;5.804;2023-02-28T02:37:40;1.63;;;1.47;;
20334;SDS011;10325;51.468;5.804;2023-02-28T02:40:25;1.97;;;1.67;;
20334;SDS011;10325;51.468;5.804;2023-02-28T02:43:19;1.57;;;1.20;;
20334;SDS011;10325;51.468;5.804;2023-02-28T02:45:55;1.63;;;1.53;;
20334;SDS011;10325;51.468;5.804;2023-02-28T02:48:49;2.10;;;1.40;;
20334;SDS011;10325;51.468;5.804;2023-02-28T02:51:23;1.90;;;1.70;;
20334;SDS011;10325;51.468;5.804;2023-02-28T02:53:53;1.60;;;1.50;;
20334;SDS011;10325;51.468;5.804;2023-02-28T02:56:26;1.80;;;1.27;;
20334;SDS011;10325;51.468;5.804;2023-02-28T02:59:03;1.90;;;1.40;;
20334;SDS011;10325;51.468;5.804;2023-02-28T03:01:36;1.80;;;1.50;;
20334;SDS011;10325;51.468;5.804;2023-02-28T03:04:16;2.73;;;2.07;;
20334;SDS011;10325;51.468;5.804;2023-02-28T03:06:47;1.97;;;1.30;;
20334;SDS011;10325;51.468;5.804;2023-02-28T03:09:16;2.10;;;1.70;;
20334;SDS011;10325;51.468;5.804;2023-02-28T03:11:46;2.57;;;1.40;;
20334;SDS011;10325;51.468;5.804;2023-02-28T03:14:25;1.50;;;1.40;;
20334;SDS011;10325;51.468;5.804;2023-02-28T03:23:13;2.43;;;2.10;;
20334;SDS011;10325;51.468;5.804;2023-02-28T03:26:00;1.97;;;1.70;;
20334;SDS011;10325;51.468;5.804;2023-02-28T03:31:30;2.10;;;1.53;;
20334;SDS011;10325;51.468;5.804;2023-02-28T03:34:37;2.23;;;1.97;;
20334;SDS011;10325;51.468;5.804;2023-02-28T03:37:12;2.60;;;1.60;;
20334;SDS011;10325;51.468;5.804;2023-02-28T03:39:54;1.60;;;1.47;;
20334;SDS011;10325;51.468;5.804;2023-02-28T03:42:28;1.97;;;1.70;;
20334;SDS011;10325;51.468;5.804;2023-02-28T03:45:13;2.80;;;1.50;;
20334;SDS011;10325;51.468;5.804;2023-02-28T03:48:35;2.20;;;1.83;;
20334;SDS011;10325;51.468;5.804;2023-02-28T03:50:52;2.30;;;1.60;;
20334;SDS011;10325;51.468;5.804;2023-02-28T03:53:25;1.60;;;1.50;;
20334;SDS011;10325;51.468;5.804;2023-02-28T03:56:22;2.30;;;1.33;;
20334;SDS011;10325;51.468;5.804;2023-02-28T03:59:13;4.07;;;1.80;;
20334;SDS011;10325;51.468;5.804;2023-02-28T04:01:51;2.03;;;1.43;;
20334;SDS011;10325;51.468;5.804;2023-02-28T04:04:20;1.60;;;1.47;;
20334;SDS011;10325;51.468;5.804;2023-02-28T04:06:53;2.23;;;1.63;;
20334;SDS011;10325;51.468;5.804;2023-02-28T04:09:37;2.57;;;2.20;;
20334;SDS011;10325;51.468;5.804;2023-02-28T04:12:09;1.63;;;1.53;;
20334;SDS011;10325;51.468;5.804;2023-02-28T04:14:41;1.80;;;1.27;;
20334;SDS011;10325;51.468;5.804;2023-02-28T04:17:11;1.60;;;1.50;;
20334;SDS011;10325;51.468;5.804;2023-02-28T04:19:40;1.53;;;1.37;;
20334;SDS011;10325;51.468;5.804;2023-02-28T04:22:08;2.63;;;1.80;;
20334;SDS011;10325;51.468;5.804;2023-02-28T04:24:37;1.57;;;1.20;;
20334;SDS011;10325;51.468;5.804;2023-02-28T04:27:11;1.60;;;1.50;;
20334;SDS011;10325;51.468;5.804;2023-02-28T04:29:43;2.17;;;1.97;;
20334;SDS011;10325;51.468;5.804;2023-02-28T04:32:13;2.03;;;1.87;;
20334;SDS011;10325;51.468;5.804;2023-02-28T04:34:42;1.97;;;1.77;;
20334;SDS011;10325;51.468;5.804;2023-02-28T04:37:15;1.53;;;1.40;;
20334;SDS011;10325;51.468;5.804;2023-02-28T04:39:51;3.00;;;1.93;;
20334;SDS011;10325;51.468;5.804;2023-02-28T04:42:25;2.13;;;1.80;;
20334;SDS011;10325;51.468;5.804;2023-02-28T04:44:57;2.17;;;1.80;;
20334;SDS011;10325;51.468;5.804;2023-02-28T04:47:27;2.10;;;1.90;;
20334;SDS011;10325;51.468;5.804;2023-02-28T04:49:58;1.80;;;1.57;;
20334;SDS011;10325;51.468;5.804;2023-02-28T04:52:27;2.00;;;1.83;;
20334;SDS011;10325;51.468;5.804;2023-02-28T04:54:57;1.87;;;1.70;;
20334;SDS011;10325;51.468;5.804;2023-02-28T04:57:29;1.87;;;1.77;;
20334;SDS011;10325;51.468;5.804;2023-02-28T04:59:59;1.77;;;1.67;;
20334;SDS011;10325;51.468;5.804;2023-02-28T05:02:29;1.80;;;1.50;;
20334;SDS011;10325;51.468;5.804;2023-02-28T05:05:02;1.83;;;1.57;;
20334;SDS011;10325;51.468;5.804;2023-02-28T05:07:35;3.50;;;2.13;;
20334;SDS011;10325;51.468;5.804;2023-02-28T05:10:05;1.87;;;1.60;;
20334;SDS011;10325;51.468;5.804;2023-02-28T05:12:36;2.90;;;1.97;;
20334;SDS011;10325;51.468;5.804;2023-02-28T05:15:08;2.03;;;1.57;;
20334;SDS011;10325;51.468;5.804;2023-02-28T05:17:41;2.00;;;1.87;;
20334;SDS011;10325;51.468;5.804;2023-02-28T05:20:13;1.50;;;1.40;;
20334;SDS011;10325;51.468;5.804;2023-02-28T05:22:43;2.37;;;1.70;;
20334;SDS011;10325;51.468;5.804;2023-02-28T05:25:17;2.47;;;1.80;;
20334;SDS011;10325;51.468;5.804;2023-02-28T05:27:50;1.40;;;1.30;;
20334;SDS011;10325;51.468;5.804;2023-02-28T05:30:20;1.67;;;1.53;;
20334;SDS011;10325;51.468;5.804;2023-02-28T05:32:52;1.30;;;1.17;;
20334;SDS011;10325;51.468;5.804;2023-02-28T05:35:25;2.77;;;1.87;;
20334;SDS011;10325;51.468;5.804;2023-02-28T05:37:54;1.50;;;1.40;;
20334;SDS011;10325;51.468;5.804;2023-02-28T05:40:24;1.70;;;1.60;;
20334;SDS011;10325;51.468;5.804;2023-02-28T05:42:56;3.23;;;1.67;;
20334;SDS011;10325;51.468;5.804;2023-02-28T05:45:28;1.63;;;1.53;;
20334;SDS011;10325;51.468;5.804;2023-02-28T05:48:01;2.53;;;1.57;;
20334;SDS011;10325;51.468;5.804;2023-02-28T05:50:33;1.33;;;1.23;;
20334;SDS011;10325;51.468;5.804;2023-02-28T05:53:06;1.63;;;1.40;;
20334;SDS011;10325;51.468;5.804;2023-02-28T05:55:35;1.40;;;1.30;;
20334;SDS011;10325;51.468;5.804;2023-02-28T05:58:06;1.80;;;1.70;;
20334;SDS011;10325;51.468;5.804;2023-02-28T06:00:39;1.87;;;1.67;;
20334;SDS011;10325;51.468;5.804;2023-02-28T06:03:12;1.97;;;1.80;;
20334;SDS011;10325;51.468;5.804;2023-02-28T06:05:41;1.87;;;1.77;;
20334;SDS011;10325;51.468;5.804;2023-02-28T06:08:14;2.00;;;1.90;;
20334;SDS011;10325;51.468;5.804;2023-02-28T06:10:41;1.50;;;1.40;;
20334;SDS011;10325;51.468;5.804;2023-02-28T06:13:13;1.53;;;1.43;;
20334;SDS011;10325;51.468;5.804;2023-02-28T06:15:45;2.17;;;1.20;;
20334;SDS011;10325;51.468;5.804;2023-02-28T06:18:16;1.37;;;1.20;;
20334;SDS011;10325;51.468;5.804;2023-02-28T06:20:53;1.70;;;1.30;;
20334;SDS011;10325;51.468;5.804;2023-02-28T06:23:24;1.90;;;1.50;;
20334;SDS011;10325;51.468;5.804;2023-02-28T06:25:57;1.50;;;1.40;;
20334;SDS011;10325;51.468;5.804;2023-02-28T06:28:30;1.87;;;1.53;;
20334;SDS011;10325;51.468;5.804;2023-02-28T06:31:04;1.80;;;1.40;;
20334;SDS011;10325;51.468;5.804;2023-02-28T06:33:37;1.80;;;1.33;;
20334;SDS011;10325;51.468;5.804;2023-02-28T06:36:08;1.53;;;1.43;;
20334;SDS011;10325;51.468;5.804;2023-02-28T06:38:39;2.53;;;1.77;;
20334;SDS011;10325;51.468;5.804;2023-02-28T06:41:10;1.67;;;1.57;;
20334;SDS011;10325;51.468;5.804;2023-02-28T06:43:51;1.20;;;1.10;;
20334;SDS011;10325;51.468;5.804;2023-02-28T06:46:35;1.70;;;1.60;;
20334;SDS011;10325;51.468;5.804;2023-02-28T06:49:06;1.83;;;1.50;;
20334;SDS011;10325;51.468;5.804;2023-02-28T06:51:39;1.80;;;1.70;;
20334;SDS011;10325;51.468;5.804;2023-02-28T06:54:11;2.20;;;2.00;;
20334;SDS011;10325;51.468;5.804;2023-02-28T06:56:43;1.93;;;1.60;;
20334;SDS011;10325;51.468;5.804;2023-02-28T06:59:15;3.00;;;1.70;;
20334;SDS011;10325;51.468;5.804;2023-02-28T07:01:53;1.90;;;1.70;;
20334;SDS011;10325;51.468;5.804;2023-02-28T07:04:24;2.07;;;1.73;;
20334;SDS011;10325;51.468;5.804;2023-02-28T07:06:55;2.50;;;1.63;;
20334;SDS011;10325;51.468;5.804;2023-02-28T07:09:27;2.10;;;2.00;;
20334;SDS011;10325;51.468;5.804;2023-02-28T07:11:59;2.17;;;1.97;;
20334;SDS011;10325;51.468;5.804;2023-02-28T07:14:31;2.87;;;1.63;;
20334;SDS011;10325;51.468;5.804;2023-02-28T07:16:59;2.20;;;2.00;;
20334;SDS011;10325;51.468;5.804;2023-02-28T07:19:31;1.97;;;1.50;;
20334;SDS011;10325;51.468;5.804;2023-02-28T07:22:01;2.10;;;1.80;;
20334;SDS011;10325;51.468;5.804;2023-02-28T07:24:29;3.03;;;2.00;;
20334;SDS011;10325;51.468;5.804;2023-02-28T07:27:00;3.27;;;1.90;;
20334;SDS011;10325;51.468;5.804;2023-02-28T07:29:30;2.03;;;1.83;;
20334;SDS011;10325;51.468;5.804;2023-02-28T07:32:03;2.50;;;1.70;;
20334;SDS011;10325;51.468;5.804;2023-02-28T07:34:36;2.63;;;1.80;;
20334;SDS011;10325;51.468;5.804;2023-02-28T07:37:10;45.57;;;8.73;;
20334;SDS011;10325;51.468;5.804;2023-02-28T07:39:40;35.43;;;5.73;;
20334;SDS011;10325;51.468;5.804;2023-02-28T07:42:12;26.03;;;6.90;;
20334;SDS011;10325;51.468;5.804;2023-02-28T07:44:43;24.23;;;5.70;;
20334;SDS011;10325;51.468;5.804;2023-02-28T07:47:14;26.80;;;5.53;;
20334;SDS011;10325;51.468;5.804;2023-02-28T07:49:46;21.27;;;5.53;;
20334;SDS011;10325;51.468;5.804;2023-02-28T07:52:17;23.40;;;5.53;;
20334;SDS011;10325;51.468;5.804;2023-02-28T07:54:57;15.27;;;4.50;;
20334;SDS011;10325;51.468;5.804;2023-02-28T07:57:28;25.20;;;4.97;;
20334;SDS011;10325;51.468;5.804;2023-02-28T08:00:04;18.23;;;4.83;;
20334;SDS011;10325;51.468;5.804;2023-02-28T08:02:36;17.33;;;4.63;;
20334;SDS011;10325;51.468;5.804;2023-02-28T08:05:08;8.40;;;3.43;;
20334;SDS011;10325;51.468;5.804;2023-02-28T08:07:39;14.00;;;4.17;;
20334;SDS011;10325;51.468;5.804;2023-02-28T08:10:10;11.17;;;3.93;;
20334;SDS011;10325;51.468;5.804;2023-02-28T08:12:40;13.00;;;3.87;;
20334;SDS011;10325;51.468;5.804;2023-02-28T08:15:09;10.93;;;3.60;;
20334;SDS011;10325;51.468;5.804;2023-02-28T08:17:36;9.37;;;2.93;;
20334;SDS011;10325;51.468;5.804;2023-02-28T08:20:08;10.70;;;3.00;;
20334;SDS011;10325;51.468;5.804;2023-02-28T08:22:38;12.70;;;3.23;;
20334;SDS011;10325;51.468;5.804;2023-02-28T08:25:11;8.77;;;2.70;;
20334;SDS011;10325;51.468;5.804;2023-02-28T08:27:42;15.07;;;3.13;;
20334;SDS011;10325;51.468;5.804;2023-02-28T08:30:11;7.00;;;2.67;;
20334;SDS011;10325;51.468;5.804;2023-02-28T08:32:42;5.60;;;2.13;;
20334;SDS011;10325;51.468;5.804;2023-02-28T08:35:15;6.83;;;2.50;;
20334;SDS011;10325;51.468;5.804;2023-02-28T08:37:52;8.10;;;2.87;;
20334;SDS011;10325;51.468;5.804;2023-02-28T08:40:23;4.97;;;2.37;;
20334;SDS011;10325;51.468;5.804;2023-02-28T08:42:56;5.33;;;2.30;;
20334;SDS011;10325;51.468;5.804;2023-02-28T08:45:28;7.57;;;2.57;;
20334;SDS011;10325;51.468;5.804;2023-02-28T08:48:01;6.33;;;2.40;;
20334;SDS011;10325;51.468;5.804;2023-02-28T08:50:36;6.17;;;2.07;;
20334;SDS011;10325;51.468;5.804;2023-02-28T08:53:03;4.77;;;1.97;;
20334;SDS011;10325;51.468;5.804;2023-02-28T08:55:33;5.07;;;2.00;;
20334;SDS011;10325;51.468;5.804;2023-02-28T08:58:05;5.67;;;2.17;;
20334;SDS011;10325;51.468;5.804;2023-02-28T09:00:36;7.27;;;2.10;;
20334;SDS011;10325;51.468;5.804;2023-02-28T09:03:10;5.27;;;2.43;;
20334;SDS011;10325;51.468;5.804;2023-02-28T09:05:51;4.70;;;1.90;;
20334;SDS011;10325;51.468;5.804;2023-02-28T09:08:27;4.50;;;1.97;;
20334;SDS011;10325;51.468;5.804;2023-02-28T09:10:59;4.80;;;1.97;;
20334;SDS011;10325;51.468;5.804;2023-02-28T09:13:30;5.30;;;1.97;;
20334;SDS011;10325;51.468;5.804;2023-02-28T09:16:05;6.57;;;1.80;;
20334;SDS011;10325;51.468;5.804;2023-02-28T09:18:40;3.17;;;1.90;;
20334;SDS011;10325;51.468;5.804;2023-02-28T09:21:08;3.70;;;2.23;;
20334;SDS011;10325;51.468;5.804;2023-02-28T09:23:49;3.33;;;1.50;;
20334;SDS011;10325;51.468;5.804;2023-02-28T09:26:22;2.23;;;1.60;;
20334;SDS011;10325;51.468;5.804;2023-02-28T09:29:06;4.37;;;1.53;;
20334;SDS011;10325;51.468;5.804;2023-02-28T09:31:38;2.23;;;1.50;;
20334;SDS011;10325;51.468;5.804;2023-02-28T09:34:08;2.33;;;1.40;;
20334;SDS011;10325;51.468;5.804;2023-02-28T09:36:39;2.40;;;1.30;;
20334;SDS011;10325;51.468;5.804;2023-02-28T09:39:13;2.40;;;1.27;;
20334;SDS011;10325;51.468;5.804;2023-02-28T09:41:57;2.50;;;1.30;;
20334;SDS011;10325;51.468;5.804;2023-02-28T09:44:40;5.63;;;1.60;;
20334;SDS011;10325;51.468;5.804;2023-02-28T09:47:25;1.73;;;1.10;;
20334;SDS011;10325;51.468;5.804;2023-02-28T09:52:56;2.00;;;0.97;;
20334;SDS011;10325;51.468;5.804;2023-02-28T09:55:32;2.13;;;1.40;;
20334;SDS011;10325;51.468;5.804;2023-02-28T10:01:39;1.90;;;0.97;;
20334;SDS011;10325;51.468;5.804;2023-02-28T10:07:14;2.10;;;1.00;;
20334;SDS011;10325;51.468;5.804;2023-02-28T10:09:52;3.57;;;1.23;;
20334;SDS011;10325;51.468;5.804;2023-02-28T10:12:27;1.87;;;1.30;;
20334;SDS011;10325;51.468;5.804;2023-02-28T10:15:05;1.20;;;1.10;;
20334;SDS011;10325;51.468;5.804;2023-02-28T10:17:39;3.83;;;1.20;;
20334;SDS011;10325;51.468;5.804;2023-02-28T10:20:34;1.10;;;0.80;;
20334;SDS011;10325;51.468;5.804;2023-02-28T10:23:19;1.23;;;1.13;;
20334;SDS011;10325;51.468;5.804;2023-02-28T10:26:12;0.97;;;0.87;;
20334;SDS011;10325;51.468;5.804;2023-02-28T10:28:43;1.77;;;1.50;;
20334;SDS011;10325;51.468;5.804;2023-02-28T10:31:18;1.73;;;1.07;;
20334;SDS011;10325;51.468;5.804;2023-02-28T10:33:53;1.73;;;1.00;;
20334;SDS011;10325;51.468;5.804;2023-02-28T10:36:27;1.07;;;0.97;;
20334;SDS011;10325;51.468;5.804;2023-02-28T10:39:00;1.80;;;1.30;;
20334;SDS011;10325;51.468;5.804;2023-02-28T10:41:31;1.00;;;0.90;;
20334;SDS011;10325;51.468;5.804;2023-02-28T10:44:22;1.47;;;0.80;;
20334;SDS011;10325;51.468;5.804;2023-02-28T10:46:52;2.20;;;0.80;;
20334;SDS011;10325;51.468;5.804;2023-02-28T10:49:26;1.33;;;1.03;;
20334;SDS011;10325;51.468;5.804;2023-02-28T10:51:59;1.63;;;0.80;;
20334;SDS011;10325;51.468;5.804;2023-02-28T10:54:32;0.97;;;0.80;;
20334;SDS011;10325;51.468;5.804;2023-02-28T10:57:17;1.43;;;0.93;;
20334;SDS011;10325;51.468;5.804;2023-02-28T11:00:32;0.90;;;0.70;;
20334;SDS011;10325;51.468;5.804;2023-02-28T11:03:09;0.93;;;0.80;;
20334;SDS011;10325;51.468;5.804;2023-02-28T11:06:08;1.27;;;0.63;;
20334;SDS011;10325;51.468;5.804;2023-02-28T11:08:55;0.67;;;0.50;;
20334;SDS011;10325;51.468;5.804;2023-02-28T11:12:05;1.37;;;0.60;;
20334;SDS011;10325;51.468;5.804;2023-02-28T11:14:52;1.03;;;0.63;;
20334;SDS011;10325;51.468;5.804;2023-02-28T11:17:33;0.80;;;0.60;;
20334;SDS011;10325;51.468;5.804;2023-02-28T11:20:03;0.80;;;0.60;;
20334;SDS011;10325;51.468;5.804;2023-02-28T11:22:43;0.97;;;0.83;;
20334;SDS011;10325;51.468;5.804;2023-02-28T11:25:26;1.00;;;0.70;;
20334;SDS011;10325;51.468;5.804;2023-02-28T11:27:58;1.57;;;0.83;;
20334;SDS011;10325;51.468;5.804;2023-02-28T11:30:39;2.77;;;0.90;;
20334;SDS011;10325;51.468;5.804;2023-02-28T11:36:08;1.50;;;0.90;;
20334;SDS011;10325;51.468;5.804;2023-02-28T11:38:46;0.83;;;0.70;;
20334;SDS011;10325;51.468;5.804;2023-02-28T11:47:00;1.10;;;1.00;;
20334;SDS011;10325;51.468;5.804;2023-02-28T11:55:39;1.30;;;1.20;;
20334;SDS011;10325;51.468;5.804;2023-02-28T12:15:58;1.23;;;1.00;;
20334;SDS011;10325;51.468;5.804;2023-02-28T12:19:11;1.53;;;0.83;;
20334;SDS011;10325;51.468;5.804;2023-02-28T12:27:28;1.73;;;0.97;;
20334;SDS011;10325;51.468;5.804;2023-02-28T12:30:16;1.03;;;0.93;;
20334;SDS011;10325;51.468;5.804;2023-02-28T12:33:05;0.97;;;0.87;;
20334;SDS011;10325;51.468;5.804;2023-02-28T12:35:57;1.57;;;1.30;;
20334;SDS011;10325;51.468;5.804;2023-02-28T12:38:41;2.47;;;0.93;;
20334;SDS011;10325;51.468;5.804;2023-02-28T12:44:13;1.50;;;0.70;;
20334;SDS011;10325;51.468;5.804;2023-02-28T12:46:55;1.70;;;1.10;;
20334;SDS011;10325;51.468;5.804;2023-02-28T12:49:36;0.93;;;0.80;;
20334;SDS011;10325;51.468;5.804;2023-02-28T12:52:13;1.83;;;1.10;;
20334;SDS011;10325;51.468;5.804;2023-02-28T12:55:46;0.80;;;0.80;;
20334;SDS011;10325;51.468;5.804;2023-02-28T13:10:22;1.40;;;0.90;;
20334;SDS011;10325;51.468;5.804;2023-02-28T13:12:58;1.57;;;1.30;;
20334;SDS011;10325;51.468;5.804;2023-02-28T13:15:29;1.50;;;1.30;;
20334;SDS011;10325;51.468;5.804;2023-02-28T13:18:03;1.73;;;1.20;;
20334;SDS011;10325;51.468;5.804;2023-02-28T13:20:35;1.63;;;1.00;;
20334;SDS011;10325;51.468;5.804;2023-02-28T13:23:14;1.17;;;0.87;;
20334;SDS011;10325;51.468;5.804;2023-02-28T13:29:39;2.27;;;1.30;;
20334;SDS011;10325;51.468;5.804;2023-02-28T13:37:36;1.20;;;1.10;;
20334;SDS011;10325;51.468;5.804;2023-02-28T13:40:27;2.70;;;1.20;;
20334;SDS011;10325;51.468;5.804;2023-02-28T13:43:12;3.07;;;1.20;;
20334;SDS011;10325;51.468;5.804;2023-02-28T13:46:19;1.40;;;0.90;;
20334;SDS011;10325;51.468;5.804;2023-02-28T13:48:50;1.40;;;0.93;;
20334;SDS011;10325;51.468;5.804;2023-02-28T13:57:41;1.20;;;0.93;;
20334;SDS011;10325;51.468;5.804;2023-02-28T14:06:35;1.60;;;0.93;;
20334;SDS011;10325;51.468;5.804;2023-02-28T14:18:33;2.57;;;1.30;;
20334;SDS011;10325;51.468;5.804;2023-02-28T14:27:35;1.27;;;1.10;;
20334;SDS011;10325;51.468;5.804;2023-02-28T14:36:24;1.30;;;1.20;;
20334;SDS011;10325;51.468;5.804;2023-02-28T14:39:13;0.97;;;0.80;;
20334;SDS011;10325;51.468;5.804;2023-02-28T14:41:50;1.13;;;0.83;;
20334;SDS011;10325;51.468;5.804;2023-02-28T14:44:24;0.80;;;0.70;;
20334;SDS011;10325;51.468;5.804;2023-02-28T14:47:02;1.50;;;0.90;;
20334;SDS011;10325;51.468;5.804;2023-02-28T14:49:38;1.40;;;0.80;;
20334;SDS011;10325;51.468;5.804;2023-02-28T14:52:20;1.10;;;1.00;;
20334;SDS011;10325;51.468;5.804;2023-02-28T14:54:57;2.17;;;1.00;;
20334;SDS011;10325;51.468;5.804;2023-02-28T14:57:53;1.47;;;0.70;;
20334;SDS011;10325;51.468;5.804;2023-02-28T15:00:31;1.30;;;0.77;;
20334;SDS011;10325;51.468;5.804;2023-02-28T15:06:17;0.90;;;0.80;;
20334;SDS011;10325;51.468;5.804;2023-02-28T15:09:15;3.50;;;1.17;;
20334;SDS011;10325;51.468;5.804;2023-02-28T15:11:50;0.87;;;0.70;;
20334;SDS011;10325;51.468;5.804;2023-02-28T15:14:23;0.63;;;0.60;;
20334;SDS011;10325;51.468;5.804;2023-02-28T15:17:01;1.10;;;0.70;;
20334;SDS011;10325;51.468;5.804;2023-02-28T15:19:36;0.97;;;0.90;;
20334;SDS011;10325;51.468;5.804;2023-02-28T15:22:17;0.70;;;0.70;;
20334;SDS011;10325;51.468;5.804;2023-02-28T15:25:04;2.27;;;0.70;;
20334;SDS011;10325;51.468;5.804;2023-02-28T15:27:39;1.00;;;0.70;;
20334;SDS011;10325;51.468;5.804;2023-02-28T15:30:30;1.37;;;0.90;;
20334;SDS011;10325;51.468;5.804;2023-02-28T15:33:25;1.10;;;0.93;;
20334;SDS011;10325;51.468;5.804;2023-02-28T15:36:06;0.97;;;0.67;;
20334;SDS011;10325;51.468;5.804;2023-02-28T15:38:43;1.30;;;0.53;;
20334;SDS011;10325;51.468;5.804;2023-02-28T15:41:30;1.07;;;1.00;;
20334;SDS011;10325;51.468;5.804;2023-02-28T15:44:28;0.97;;;0.80;;
20334;SDS011;10325;51.468;5.804;2023-02-28T15:47:06;0.63;;;0.63;;
20334;SDS011;10325;51.468;5.804;2023-02-28T15:52:53;1.10;;;1.00;;
20334;SDS011;10325;51.468;5.804;2023-02-28T15:55:26;1.00;;;0.93;;
20334;SDS011;10325;51.468;5.804;2023-02-28T15:58:00;1.17;;;1.07;;
20334;SDS011;10325;51.468;5.804;2023-02-28T16:00:31;1.23;;;0.90;;
20334;SDS011;10325;51.468;5.804;2023-02-28T16:03:01;0.70;;;0.70;;
20334;SDS011;10325;51.468;5.804;2023-02-28T16:06:07;1.20;;;1.10;;
20334;SDS011;10325;51.468;5.804;2023-02-28T16:08:40;1.23;;;0.73;;
20334;SDS011;10325;51.468;5.804;2023-02-28T16:11:17;0.70;;;0.70;;
20334;SDS011;10325;51.468;5.804;2023-02-28T16:13:46;0.90;;;0.90;;
20334;SDS011;10325;51.468;5.804;2023-02-28T16:16:18;0.63;;;0.63;;
20334;SDS011;10325;51.468;5.804;2023-02-28T16:18:50;0.97;;;0.77;;
20334;SDS011;10325;51.468;5.804;2023-02-28T16:21:21;0.87;;;0.83;;
20334;SDS011;10325;51.468;5.804;2023-02-28T16:23:53;0.83;;;0.70;;
20334;SDS011;10325;51.468;5.804;2023-02-28T16:26:25;1.00;;;0.83;;
20334;SDS011;10325;51.468;5.804;2023-02-28T16:28:57;2.67;;;1.07;;
20334;SDS011;10325;51.468;5.804;2023-02-28T16:31:26;1.03;;;0.97;;
20334;SDS011;10325;51.468;5.804;2023-02-28T16:33:57;1.00;;;0.70;;
20334;SDS011;10325;51.468;5.804;2023-02-28T16:36:24;0.90;;;0.73;;
20334;SDS011;10325;51.468;5.804;2023-02-28T16:38:56;1.30;;;1.00;;
20334;SDS011;10325;51.468;5.804;2023-02-28T16:41:26;1.27;;;0.83;;
20334;SDS011;10325;51.468;5.804;2023-02-28T16:43:59;1.10;;;0.90;;
20334;SDS011;10325;51.468;5.804;2023-02-28T16:46:33;1.03;;;0.90;;
20334;SDS011;10325;51.468;5.804;2023-02-28T16:49:10;0.90;;;0.90;;
20334;SDS011;10325;51.468;5.804;2023-02-28T16:51:39;2.03;;;1.20;;
20334;SDS011;10325;51.468;5.804;2023-02-28T16:54:11;0.97;;;0.83;;
20334;SDS011;10325;51.468;5.804;2023-02-28T16:57:00;0.93;;;0.80;;
20334;SDS011;10325;51.468;5.804;2023-02-28T16:59:33;0.90;;;0.90;;
20334;SDS011;10325;51.468;5.804;2023-02-28T17:02:08;0.70;;;0.60;;
20334;SDS011;10325;51.468;5.804;2023-02-28T17:04:43;0.80;;;0.80;;
20334;SDS011;10325;51.468;5.804;2023-02-28T17:07:15;1.03;;;0.90;;
20334;SDS011;10325;51.468;5.804;2023-02-28T17:09:47;1.00;;;0.90;;
20334;SDS011;10325;51.468;5.804;2023-02-28T17:12:17;0.80;;;0.70;;
20334;SDS011;10325;51.468;5.804;2023-02-28T17:14:47;1.43;;;1.33;;
20334;SDS011;10325;51.468;5.804;2023-02-28T17:17:19;0.97;;;0.93;;
20334;SDS011;10325;51.468;5.804;2023-02-28T17:19:50;1.00;;;1.00;;
20334;SDS011;10325;51.468;5.804;2023-02-28T17:22:31;1.00;;;1.00;;
20334;SDS011;10325;51.468;5.804;2023-02-28T17:25:04;1.00;;;0.87;;
20334;SDS011;10325;51.468;5.804;2023-02-28T17:27:54;1.00;;;0.77;;
20334;SDS011;10325;51.468;5.804;2023-02-28T17:30:24;0.70;;;0.70;;
20334;SDS011;10325;51.468;5.804;2023-02-28T17:32:57;1.60;;;1.00;;
20334;SDS011;10325;51.468;5.804;2023-02-28T17:35:32;1.20;;;1.10;;
20334;SDS011;10325;51.468;5.804;2023-02-28T17:38:02;1.77;;;0.80;;
20334;SDS011;10325;51.468;5.804;2023-02-28T17:40:34;1.20;;;1.10;;
20334;SDS011;10325;51.468;5.804;2023-02-28T17:43:16;0.70;;;0.63;;
20334;SDS011;10325;51.468;5.804;2023-02-28T17:45:48;1.50;;;1.40;;
20334;SDS011;10325;51.468;5.804;2023-02-28T17:48:20;0.90;;;0.80;;
20334;SDS011;10325;51.468;5.804;2023-02-28T17:50:50;1.23;;;1.13;;
20334;SDS011;10325;51.468;5.804;2023-02-28T17:53:21;0.97;;;0.83;;
20334;SDS011;10325;51.468;5.804;2023-02-28T17:55:53;2.27;;;0.97;;
20334;SDS011;10325;51.468;5.804;2023-02-28T17:58:25;1.27;;;1.07;;